Time;durP1;ratioP1;P1;durP2;ratioP2;P2;SDS_P1;SDS_P2;PMS_P1;PMS_P2;Temp;Humidity;BMP_temperature;BMP_pressure;BME280_temperature;BME280_humidity;BME280_pressure;Samples;Min_cycle;Max_cycle;Signal;HPM_P1;HPM_P2
2022/03/02 00:00:21;;;;;;;13.80;9.47;;;;;;;0.72;72.88;97601.34;5042754;28;20284;-94
2022/03/02 00:02:51;;;;;;;15.90;9.10;;;;;;;0.39;72.52;97568.16;5073481;28;20621;-93
2022/03/02 00:05:20;;;;;;;15.57;8.80;;;;;;;0.58;72.28;97597.91;5073561;28;20189;-94
2022/03/02 00:07:47;;;;;;;17.03;9.40;;;;;;;0.61;73.50;97580.94;5039287;28;20227;-94
2022/03/02 00:10:15;;;;;;;14.00;8.77;;;;;;;0.59;72.50;97575.00;5040469;28;20675;-94
2022/03/02 00:12:48;;;;;;;14.63;8.67;;;;;;;0.64;72.42;97582.63;5072723;28;20223;-93
2022/03/02 00:15:19;;;;;;;16.03;9.97;;;;;;;0.65;72.33;97586.88;5040454;28;20194;-93
2022/03/02 00:17:49;;;;;;;15.33;8.80;;;;;;;0.49;72.48;97564.78;5039333;28;20739;-93
2022/03/02 00:20:19;;;;;;;17.47;10.23;;;;;;;0.04;72.91;97503.56;5059029;28;20200;-93
2022/03/02 00:23:04;;;;;;;15.23;9.27;;;;;;;0.45;73.08;97580.91;5041939;28;20185;-93
2022/03/02 00:25:33;;;;;;;12.97;8.27;;;;;;;-0.33;72.84;97429.66;5055118;28;20203;-93
2022/03/02 00:28:05;;;;;;;11.80;8.33;;;;;;;0.47;73.58;97566.47;5041927;28;20202;-94
2022/03/02 00:30:37;;;;;;;16.00;9.17;;;;;;;-0.13;72.72;97475.53;5056591;28;20228;-94
2022/03/02 00:33:22;;;;;;;13.33;8.80;;;;;;;0.19;73.56;97544.31;5027309;28;20189;-96
2022/03/02 00:35:55;;;;;;;14.47;8.93;;;;;;;0.40;73.70;97577.50;5056943;28;20697;-94
2022/03/02 00:38:33;;;;;;;13.50;8.40;;;;;;;0.33;73.19;97568.97;5040057;28;20232;-94
2022/03/02 00:41:17;;;;;;;13.70;8.50;;;;;;;0.14;73.75;97559.59;5074615;28;20203;-94
2022/03/02 00:43:55;;;;;;;14.13;8.60;;;;;;;0.19;73.52;97569.78;5042243;28;20194;-93
2022/03/02 00:46:41;;;;;;;12.67;7.73;;;;;;;0.14;73.44;97546.03;5026555;28;20672;-95
2022/03/02 00:49:10;;;;;;;11.80;8.00;;;;;;;0.31;73.72;97559.66;5040869;28;20199;-92
2022/03/02 00:51:43;;;;;;;14.90;8.40;;;;;;;0.24;74.18;97556.25;5071389;28;20188;-93
2022/03/02 00:54:15;;;;;;;13.47;9.03;;;;;;;0.19;73.72;97551.97;5041060;28;20573;-94
2022/03/02 00:56:52;;;;;;;11.83;7.63;;;;;;;-0.18;73.70;97483.13;5074026;28;20310;-94
2022/03/02 00:59:36;;;;;;;15.70;9.43;;;;;;;0.08;74.03;97521.41;5042532;28;20192;-93
2022/03/02 01:02:13;;;;;;;13.63;8.23;;;;;;;0.29;74.02;97561.34;5041533;28;20196;-93
2022/03/02 01:04:50;;;;;;;13.23;8.27;;;;;;;0.20;73.14;97534.16;5054283;28;20206;-93
2022/03/02 01:07:19;;;;;;;12.37;7.97;;;;;;;0.16;72.74;97501.03;5039712;28;20226;-93
2022/03/02 01:09:47;;;;;;;14.13;8.47;;;;;;;0.21;72.68;97509.53;5055185;28;20196;-94
2022/03/02 01:12:15;;;;;;;13.03;8.57;;;;;;;0.37;73.51;97529.09;5071224;28;20197;-93
2022/03/02 01:14:46;;;;;;;12.33;8.97;;;;;;;0.08;73.49;97479.81;5056677;28;20223;-94
2022/03/02 01:17:17;;;;;;;13.73;9.07;;;;;;;-0.08;73.22;97448.38;5038893;28;20307;-94
2022/03/02 01:19:45;;;;;;;13.10;8.83;;;;;;;0.57;72.53;97522.31;5066156;28;20242;-94
2022/03/02 01:22:14;;;;;;;13.47;9.00;;;;;;;0.61;72.00;97501.97;5093323;28;20279;-95
2022/03/02 01:24:44;;;;;;;15.93;9.50;;;;;;;0.63;72.14;97495.16;5056116;28;20222;-95
2022/03/02 01:27:13;;;;;;;13.83;8.77;;;;;;;0.88;72.76;97513.84;5038853;28;20201;-93
2022/03/02 01:29:42;;;;;;;16.57;9.60;;;;;;;0.73;72.21;97479.00;5055275;28;20228;-93
2022/03/02 01:32:12;;;;;;;16.00;9.47;;;;;;;0.80;71.63;97480.69;5055823;28;20196;-93
2022/03/02 01:34:44;;;;;;;16.50;9.83;;;;;;;1.08;71.90;97508.72;5054436;28;20204;-94
2022/03/02 01:37:16;;;;;;;16.87;10.47;;;;;;;1.16;71.88;97499.34;5039381;28;20224;-95
2022/03/02 01:39:46;;;;;;;16.37;10.03;;;;;;;0.82;71.97;97461.16;5037905;28;20246;-94
2022/03/02 01:42:13;;;;;;;15.17;9.37;;;;;;;1.03;72.17;97502.78;5055226;28;20257;-94
2022/03/02 01:44:42;;;;;;;19.30;10.70;;;;;;;0.89;72.64;97484.94;5081330;28;20192;-93
2022/03/02 01:47:10;;;;;;;17.00;9.70;;;;;;;0.92;73.48;97479.84;5059155;28;20640;-93
2022/03/02 01:49:39;;;;;;;16.57;10.80;;;;;;;0.89;73.43;97444.16;5075605;28;20675;-93
2022/03/02 01:52:07;;;;;;;17.23;10.30;;;;;;;0.67;72.69;97422.09;5057710;28;20734;-93
2022/03/02 01:54:34;;;;;;;19.13;11.13;;;;;;;0.51;72.43;97400.91;5042420;28;20196;-93
2022/03/02 01:57:04;;;;;;;17.03;10.33;;;;;;;1.02;72.41;97476.44;5025278;28;20230;-94
2022/03/02 01:59:32;;;;;;;17.87;11.27;;;;;;;0.79;73.50;97456.06;5043526;28;20242;-94
2022/03/02 02:06:13;;;;;;;19.63;10.07;;;;;;;0.50;74.70;97452.69;5017445;28;20218;-94
2022/03/02 02:08:42;;;;;;;18.93;10.73;;;;;;;0.70;75.00;97470.53;5002515;28;20208;-94
2022/03/02 02:15:15;;;;;;;19.00;11.63;;;;;;;0.62;74.96;97445.03;5038584;28;20225;-93
2022/03/02 02:17:52;;;;;;;19.10;11.90;;;;;;;0.81;75.43;97471.34;5019963;28;20225;-94
2022/03/02 02:20:25;;;;;;;22.00;12.50;;;;;;;0.64;75.10;97437.38;5004082;28;20261;-92
2022/03/02 02:22:55;;;;;;;25.53;13.03;;;;;;;0.89;74.61;97458.63;5000615;28;20197;-91
2022/03/02 02:25:24;;;;;;;25.20;12.90;;;;;;;0.79;74.25;97447.56;5017634;28;20200;-92
2022/03/02 02:27:56;;;;;;;23.40;12.80;;;;;;;0.72;75.24;97456.09;5016476;28;20202;-92
2022/03/02 02:30:26;;;;;;;25.13;12.50;;;;;;;0.09;76.05;97370.34;5034023;28;20656;-93
2022/03/02 02:32:57;;;;;;;19.13;11.43;;;;;;;0.40;76.86;97406.84;5017508;28;20194;-93
2022/03/02 02:35:27;;;;;;;23.67;12.87;;;;;;;0.71;75.46;97446.72;5020631;28;20233;-91
2022/03/02 02:37:58;;;;;;;19.97;12.47;;;;;;;0.51;76.46;97456.94;5075312;28;20277;-92
2022/03/02 02:40:27;;;;;;;20.53;12.57;;;;;;;0.38;76.82;97434.00;5056767;28;20239;-93
2022/03/02 02:42:55;;;;;;;25.03;13.87;;;;;;;0.12;76.59;97395.81;5058222;28;20197;-93
2022/03/02 02:45:25;;;;;;;24.87;12.97;;;;;;;0.25;77.24;97411.94;5040607;28;20218;-93
2022/03/02 02:47:57;;;;;;;23.20;13.00;;;;;;;0.29;77.58;97408.56;5074807;28;20200;-93
2022/03/02 02:50:29;;;;;;;23.50;13.60;;;;;;;0.42;76.88;97426.38;5057838;28;20192;-93
2022/03/02 02:53:00;;;;;;;21.83;12.67;;;;;;;0.61;77.47;97439.94;5040996;28;20636;-93
2022/03/02 02:55:31;;;;;;;22.90;12.57;;;;;;;0.50;77.33;97409.38;5059484;28;20196;-92
2022/03/02 02:58:01;;;;;;;25.50;13.77;;;;;;;0.72;77.24;97425.50;5056667;28;20229;-93
2022/03/02 03:00:35;;;;;;;23.23;12.47;;;;;;;0.48;77.48;97398.34;5042518;28;20200;-93
2022/03/02 03:03:04;;;;;;;22.63;12.63;;;;;;;0.59;76.43;97398.34;5057611;28;20188;-93
2022/03/02 03:05:35;;;;;;;23.07;12.90;;;;;;;0.69;76.57;97416.16;5092377;28;20793;-95
2022/03/02 03:08:10;;;;;;;22.77;13.30;;;;;;;0.74;75.92;97413.59;5042452;28;20593;-95
2022/03/02 03:10:45;;;;;;;25.30;13.17;;;;;;;0.49;76.86;97369.47;5057835;28;20196;-93
2022/03/02 03:13:17;;;;;;;19.87;11.97;;;;;;;0.67;75.84;97406.81;5059649;28;20222;-94
2022/03/02 03:15:52;;;;;;;21.40;12.03;;;;;;;0.38;76.00;97366.09;5058731;28;20288;-96
2022/03/02 03:18:28;;;;;;;22.67;12.73;;;;;;;0.47;76.49;97383.91;5073679;28;20231;-95
2022/03/02 03:20:56;;;;;;;20.40;11.70;;;;;;;0.08;77.23;97329.63;5058738;28;20197;-94
2022/03/02 03:23:25;;;;;;;21.23;11.87;;;;;;;0.07;75.92;97310.09;5056967;28;20597;-95
2022/03/02 03:25:54;;;;;;;20.77;12.50;;;;;;;0.46;75.71;97371.16;5041779;28;20192;-95
2022/03/02 03:28:23;;;;;;;22.17;11.97;;;;;;;0.70;75.55;97402.56;5056445;28;20189;-93
2022/03/02 03:31:18;;;;;;;16.97;10.60;;;;;;;0.75;76.12;97410.19;5059910;28;20731;-91
2022/03/02 03:33:45;;;;;;;17.83;10.40;;;;;;;0.65;75.93;97390.69;5062314;28;20216;-95
2022/03/02 03:36:28;;;;;;;17.63;11.20;;;;;;;0.47;76.63;97365.22;5027127;28;20183;-94
2022/03/02 03:39:02;;;;;;;16.80;10.53;;;;;;;0.64;76.91;97396.59;5059647;28;20223;-93
2022/03/02 03:41:35;;;;;;;17.90;10.50;;;;;;;0.47;76.18;97361.00;5073444;28;20204;-93
2022/03/02 03:44:08;;;;;;;20.60;12.73;;;;;;;0.73;76.52;97394.06;5059148;28;20593;-93
2022/03/02 03:46:37;;;;;;;19.17;12.47;;;;;;;0.10;76.43;97310.97;5041539;28;20597;-94
2022/03/02 03:49:05;;;;;;;21.97;12.00;;;;;;;0.31;76.86;97363.56;5055413;28;20279;-93
2022/03/02 03:51:36;;;;;;;19.37;11.17;;;;;;;0.37;76.53;97377.13;5056723;28;20755;-93
2022/03/02 03:54:19;;;;;;;15.73;9.60;;;;;;;0.39;76.98;97365.22;5054400;28;20195;-92
2022/03/02 03:56:48;;;;;;;18.07;11.33;;;;;;;0.35;77.34;97390.72;5056893;28;20192;-93
2022/03/02 03:59:25;;;;;;;16.97;9.37;;;;;;;0.25;76.55;97361.03;5025023;28;20220;-94
2022/03/02 04:01:52;;;;;;;21.70;11.10;;;;;;;0.37;76.87;97384.75;5074213;28;20283;-93
2022/03/02 04:05:00;;;;;;;17.97;11.10;;;;;;;0.32;77.04;97383.94;5040883;28;20282;-94
2022/03/02 04:08:22;;;;;;;23.07;12.87;;;;;;;0.43;76.55;97394.09;5040997;28;20660;-94
2022/03/02 04:11:46;;;;;;;22.77;12.47;;;;;;;0.15;76.66;97369.47;5041088;28;20192;-93
2022/03/02 04:15:06;;;;;;;21.60;12.50;;;;;;;-0.10;77.32;97328.75;5042250;28;20230;-94
2022/03/02 04:18:27;;;;;;;22.77;12.40;;;;;;;0.17;77.15;97388.16;5046644;28;20227;-93
2022/03/02 04:21:49;;;;;;;21.23;12.03;;;;;;;-0.75;77.61;97282.06;5071151;28;20275;-94
2022/03/02 04:29:33;;;;;;;21.23;12.20;;;;;;;-0.24;78.32;97396.59;5072306;28;20203;-93
2022/03/02 04:32:56;;;;;;;20.90;13.27;;;;;;;-0.50;79.70;97398.25;5071466;28;20664;-93
2022/03/02 04:36:37;;;;;;;23.00;13.70;;;;;;;-0.50;79.04;97390.63;5079793;28;20683;-94
2022/03/02 04:40:10;;;;;;;21.33;12.13;;;;;;;-0.52;80.28;97388.91;5057807;28;20231;-96
2022/03/02 04:43:32;;;;;;;22.67;11.40;;;;;;;-0.54;79.41;97381.28;5074916;28;20200;-93
2022/03/02 04:47:02;;;;;;;24.17;12.77;;;;;;;-0.40;79.64;97389.78;5051846;28;20180;-94
2022/03/02 04:50:41;;;;;;;23.17;11.67;;;;;;;-0.54;79.08;97360.94;5064502;28;20194;-95
2022/03/02 04:58:32;;;;;;;23.67;13.67;;;;;;;-0.37;78.63;97389.78;5062778;28;20229;-92
2022/03/02 05:01:58;;;;;;;22.27;12.60;;;;;;;-0.43;78.78;97374.50;5064493;28;20263;-93
2022/03/02 05:05:42;;;;;;;25.20;12.97;;;;;;;-0.23;78.11;97387.28;5087181;28;20289;-91
2022/03/02 05:09:09;;;;;;;17.20;10.13;;;;;;;-0.24;77.86;97394.06;5092455;28;20195;-92
2022/03/02 05:12:32;;;;;;;20.83;11.67;;;;;;;-0.08;76.70;97393.22;5083956;28;20325;-90
2022/03/02 05:15:54;;;;;;;19.07;11.00;;;;;;;-0.07;75.69;97378.81;5093739;28;20191;-90
2022/03/02 05:19:15;;;;;;;21.63;10.87;;;;;;;-0.17;76.08;97377.97;5063948;28;20308;-90
2022/03/02 05:22:37;;;;;;;20.23;12.13;;;;;;;0.07;76.17;97401.72;5061719;28;20176;-91
2022/03/02 05:25:59;;;;;;;18.13;11.30;;;;;;;0.03;76.01;97388.16;5093129;28;20203;-90
2022/03/02 05:29:19;;;;;;;15.07;10.07;;;;;;;0.19;74.73;97394.94;5103515;28;20199;-89
2022/03/02 05:32:40;;;;;;;19.00;10.53;;;;;;;0.14;74.95;97368.66;5061462;28;20372;-92
2022/03/02 05:36:02;;;;;;;17.67;10.13;;;;;;;0.25;74.41;97376.28;5079954;28;20176;-94
2022/03/02 05:39:24;;;;;;;18.93;10.00;;;;;;;0.32;73.22;97383.06;5078906;28;20265;-94
2022/03/02 05:42:49;;;;;;;16.77;10.43;;;;;;;-0.33;73.51;97296.53;5075982;28;20278;-90
2022/03/02 05:46:12;;;;;;;17.23;9.80;;;;;;;0.39;73.06;97402.59;5063399;28;20192;-95
2022/03/02 05:49:40;;;;;;;18.50;9.63;;;;;;;0.36;71.98;97405.13;5084371;28;20237;-93
2022/03/02 05:57:12;;;;;;;14.13;9.00;;;;;;;0.26;72.91;97399.22;5073097;28;20204;-91
2022/03/02 06:00:36;;;;;;;21.60;10.30;;;;;;;0.37;72.62;97405.13;5057345;28;20212;-94
2022/03/02 06:04:01;;;;;;;19.43;10.03;;;;;;;0.37;73.57;97411.94;5043563;28;20198;-91
2022/03/02 06:07:31;;;;;;;20.40;12.07;;;;;;;0.38;73.42;97398.34;5091540;28;20728;-91
2022/03/02 06:11:07;;;;;;;19.40;11.57;;;;;;;0.36;73.11;97388.16;5064389;28;20277;-94
2022/03/02 06:15:20;;;;;;;23.83;11.93;;;;;;;-0.02;74.43;97400.03;5093240;28;20204;-93
2022/03/02 06:18:44;;;;;;;23.87;12.67;;;;;;;-0.61;75.59;97300.72;5056949;28;20813;-91
2022/03/02 06:22:07;;;;;;;23.37;11.80;;;;;;;0.00;74.58;97414.44;5073714;28;20194;-93
2022/03/02 06:25:33;;;;;;;20.03;12.77;;;;;;;-0.15;75.78;97390.69;5076379;28;20207;-91
2022/03/02 06:28:57;;;;;;;19.63;11.43;;;;;;;-0.12;76.02;97416.13;5078314;28;20200;-91
2022/03/02 06:32:24;;;;;;;23.27;12.20;;;;;;;-0.14;75.43;97408.50;5061103;28;20228;-91
2022/03/02 06:35:47;;;;;;;23.43;13.13;;;;;;;-0.19;75.77;97414.44;5063226;28;20192;-92
2022/03/02 06:39:11;;;;;;;20.00;11.63;;;;;;;-0.04;75.04;97407.66;5079136;28;20227;-93
2022/03/02 06:42:38;;;;;;;20.17;12.23;;;;;;;-0.08;75.87;97413.59;5067335;28;20188;-91
2022/03/02 06:46:16;;;;;;;17.50;9.97;;;;;;;-0.07;74.98;97387.31;5055146;28;20268;-95
2022/03/02 06:49:21;;;;;;;19.07;9.87;;;;;;;0.09;75.40;97410.22;5055597;28;20292;-94
2022/03/02 06:53:03;;;;;;;27.60;12.83;;;;;;;0.34;74.48;97401.75;5074383;28;20208;-91
2022/03/02 06:57:44;;;;;;;18.07;9.20;;;;;;;0.32;73.40;97411.09;5043259;28;20207;-91
2022/03/02 07:01:14;;;;;;;17.10;9.33;;;;;;;0.45;74.23;97406.00;5088632;28;20240;-91
2022/03/02 07:05:08;;;;;;;17.53;10.53;;;;;;;-0.09;72.92;97287.22;5104005;28;20240;-91
2022/03/02 07:08:44;;;;;;;19.07;11.10;;;;;;;0.78;72.36;97415.31;5099458;28;20553;-90
2022/03/02 07:12:09;;;;;;;18.10;10.90;;;;;;;0.18;72.17;97303.28;5060951;28;20188;-92
2022/03/02 07:15:34;;;;;;;18.73;11.17;;;;;;;0.86;70.67;97405.94;5076554;28;20547;-92
2022/03/02 07:19:02;;;;;;;17.77;10.60;;;;;;;0.72;71.50;97410.22;5046347;28;20996;-89
2022/03/02 07:22:22;;;;;;;16.50;9.40;;;;;;;0.51;72.23;97379.66;5045059;28;20192;-92
2022/03/02 07:25:42;;;;;;;14.87;9.13;;;;;;;0.65;72.65;97411.91;5063263;28;20196;-91
2022/03/02 07:29:05;;;;;;;14.30;8.13;;;;;;;0.50;72.46;97377.94;5042052;28;20771;-93
2022/03/02 07:32:29;;;;;;;15.10;9.00;;;;;;;0.26;71.43;97343.19;5058436;28;20252;-91
2022/03/02 07:35:58;;;;;;;13.93;8.77;;;;;;;0.57;72.22;97390.69;5045275;28;20189;-92
2022/03/02 07:39:25;;;;;;;15.93;9.30;;;;;;;0.69;72.42;97397.47;5061263;28;20220;-90
2022/03/02 07:42:47;;;;;;;16.70;8.87;;;;;;;0.70;72.14;97391.53;5060998;28;20222;-92
2022/03/02 07:46:13;;;;;;;12.10;7.70;;;;;;;0.62;71.89;97370.28;5079213;28;20201;-91
2022/03/02 07:49:50;;;;;;;14.27;8.77;;;;;;;0.68;72.44;97380.50;5061672;28;20196;-93
2022/03/02 07:53:17;;;;;;;13.83;8.47;;;;;;;0.51;71.18;97339.75;5061391;28;20299;-91
2022/03/02 07:56:44;;;;;;;11.93;8.07;;;;;;;0.68;71.28;97377.94;5076099;28;20201;-91
2022/03/02 08:00:12;;;;;;;16.57;9.53;;;;;;;0.87;72.41;97374.47;5061382;28;20254;-91
2022/03/02 08:03:34;;;;;;;16.77;9.70;;;;;;;0.93;71.48;97378.75;5053618;28;20193;-90
2022/03/02 08:07:00;;;;;;;15.63;9.53;;;;;;;0.89;71.59;97365.13;5042878;28;20188;-91
2022/03/02 08:10:26;;;;;;;14.30;9.47;;;;;;;0.93;71.44;97366.81;5043804;28;20192;-92
2022/03/02 08:13:49;;;;;;;15.20;9.93;;;;;;;1.12;72.01;97370.16;5056452;28;20189;-91
2022/03/02 08:17:13;;;;;;;14.97;10.17;;;;;;;0.58;70.58;97248.84;5061501;28;20204;-95
2022/03/02 08:20:35;;;;;;;14.10;9.37;;;;;;;1.31;70.46;97367.53;5063485;28;20192;-90
2022/03/02 08:24:08;;;;;;;21.40;11.00;;;;;;;1.17;71.44;97346.34;5070232;28;20218;-92
2022/03/02 08:27:29;;;;;;;18.20;10.00;;;;;;;1.33;70.45;97350.53;5068444;28;20211;-92
2022/03/02 08:30:51;;;;;;;17.50;9.97;;;;;;;1.52;70.46;97352.13;5071443;28;20808;-93
2022/03/02 08:34:24;;;;;;;17.90;9.97;;;;;;;1.73;69.62;97355.41;5096574;28;20705;-91
2022/03/02 08:37:48;;;;;;;18.43;10.73;;;;;;;1.87;68.20;97333.19;5075116;28;20202;-91
2022/03/02 08:41:12;;;;;;;15.00;9.47;;;;;;;2.14;66.18;97312.53;5088750;28;20188;-90
2022/03/02 08:44:34;;;;;;;18.43;10.70;;;;;;;2.28;66.07;97341.34;5055548;28;20180;-90
2022/03/02 08:48:03;;;;;;;18.53;10.93;;;;;;;2.56;66.75;97324.91;5074151;28;20193;-90
2022/03/02 08:51:25;;;;;;;26.33;12.87;;;;;;;2.82;66.19;97310.16;5006245;28;20278;-91
2022/03/02 08:54:47;;;;;;;23.97;12.47;;;;;;;3.18;64.83;97325.06;5020019;28;20274;-94
2022/03/02 08:58:10;;;;;;;19.63;11.80;;;;;;;3.45;64.61;97323.00;5005987;28;20214;-92
2022/03/02 09:01:58;;;;;;;20.00;11.40;;;;;;;3.47;64.05;97304.19;5025099;28;20221;-93
2022/03/02 09:05:22;;;;;;;18.47;11.03;;;;;;;3.74;63.09;97303.81;4988724;28;20190;-92
2022/03/02 09:08:56;;;;;;;16.03;10.87;;;;;;;3.78;62.17;97302.03;5021255;28;20208;-92
2022/03/02 09:12:22;;;;;;;18.87;11.23;;;;;;;3.87;61.55;97261.78;5019629;28;20216;-93
2022/03/02 09:15:57;;;;;;;15.20;9.80;;;;;;;4.04;60.76;97292.22;5019711;28;20217;-92
2022/03/02 09:19:42;;;;;;;15.43;10.43;;;;;;;4.29;60.70;97270.44;5021090;28;20337;-94
2022/03/02 09:23:05;;;;;;;12.50;8.27;;;;;;;4.07;58.80;97274.25;5053186;28;20286;-94
2022/03/02 09:26:36;;;;;;;13.30;7.20;;;;;;;3.92;58.63;97264.25;5082895;28;20215;-96
2022/03/02 09:30:12;;;;;;;13.30;8.20;;;;;;;3.95;59.94;97251.41;5084792;28;20227;-90
2022/03/02 09:33:34;;;;;;;11.67;8.13;;;;;;;3.71;59.40;97198.03;5051864;28;20202;-93
2022/03/02 09:37:04;;;;;;;26.67;13.57;;;;;;;4.34;59.20;97247.28;5047294;28;20698;-92
2022/03/02 09:40:39;;;;;;;19.00;11.07;;;;;;;4.26;59.02;97216.69;5080812;28;20897;-93
2022/03/02 09:44:02;;;;;;;10.17;7.37;;;;;;;3.93;56.56;97159.22;5049580;28;20216;-92
2022/03/02 09:47:33;;;;;;;6.00;4.47;;;;;;;3.78;54.63;97225.19;5026856;28;20214;-93
2022/03/02 09:51:09;;;;;;;5.50;4.40;;;;;;;3.78;55.45;97232.88;5038898;28;20323;-93
2022/03/02 09:54:37;;;;;;;9.23;5.03;;;;;;;3.86;55.71;97228.47;5021828;28;20203;-93
2022/03/02 10:02:56;;;;;;;5.10;3.77;;;;;;;3.78;54.93;97238.84;5018273;28;20202;-95
2022/03/02 10:06:21;;;;;;;6.83;5.20;;;;;;;3.83;53.81;97206.31;4987537;28;20213;-92
2022/03/02 10:09:48;;;;;;;9.23;4.87;;;;;;;3.88;54.28;97201.13;5036258;28;20304;-94
2022/03/02 10:13:22;;;;;;;7.50;4.57;;;;;;;3.77;54.56;97177.44;5022126;28;20337;-93
2022/03/02 10:17:00;;;;;;;6.53;4.63;;;;;;;3.87;54.64;97209.69;5033607;28;20190;-92
2022/03/02 10:20:30;;;;;;;11.13;8.00;;;;;;;3.86;55.00;97195.19;5094615;28;20204;-91
2022/03/02 10:24:24;;;;;;;6.37;5.00;;;;;;;4.03;54.52;97165.84;5034115;28;20214;-92
2022/03/02 10:28:04;;;;;;;7.53;4.90;;;;;;;4.03;55.02;97190.63;5024760;28;20240;-91
2022/03/02 10:31:30;;;;;;;7.00;5.40;;;;;;;3.96;55.26;97146.31;5002451;28;20231;-92
2022/03/02 10:34:55;;;;;;;7.07;5.20;;;;;;;4.10;54.81;97172.53;4994607;28;20203;-93
2022/03/02 10:38:33;;;;;;;6.57;4.50;;;;;;;3.75;55.63;97144.13;5011283;28;20248;-91
2022/03/02 10:41:59;;;;;;;7.03;5.10;;;;;;;3.96;56.32;97168.53;4997455;28;20192;-93
2022/03/02 10:45:40;;;;;;;7.30;5.60;;;;;;;3.41;56.38;97044.91;4994717;28;20651;-92
2022/03/02 10:49:06;;;;;;;5.57;4.10;;;;;;;4.32;55.70;97143.94;4984845;28;20208;-91
2022/03/02 10:52:34;;;;;;;7.90;4.80;;;;;;;4.31;55.67;97099.53;4983091;28;20186;-90
2022/03/02 10:56:08;;;;;;;4.83;4.23;;;;;;;4.13;55.72;97138.31;5021956;28;20229;-91
2022/03/02 10:59:56;;;;;;;6.80;4.70;;;;;;;4.08;56.57;97114.53;4993371;28;20275;-93
2022/03/02 11:03:24;;;;;;;7.07;5.20;;;;;;;4.18;56.39;97128.84;4967647;28;20211;-93
2022/03/02 11:06:50;;;;;;;7.37;5.20;;;;;;;3.56;58.68;97060.88;4998261;28;20195;-94
2022/03/02 11:10:16;;;;;;;7.17;4.80;;;;;;;3.71;58.38;97095.59;4951469;28;20195;-91
2022/03/02 11:13:38;;;;;;;5.43;4.53;;;;;;;3.64;57.75;97048.75;4957201;28;20199;-94
2022/03/02 11:17:02;;;;;;;4.83;3.90;;;;;;;4.17;57.04;97086.13;4960902;28;20196;-93
2022/03/02 11:20:33;;;;;;;4.63;3.83;;;;;;;4.27;55.75;97069.69;4957900;28;20228;-93
2022/03/02 11:24:12;;;;;;;7.53;4.07;;;;;;;3.97;56.32;97090.81;4958878;28;20204;-92
2022/03/02 11:27:45;;;;;;;6.80;5.30;;;;;;;4.42;55.43;97073.66;4973302;28;20259;-92
2022/03/02 11:31:24;;;;;;;4.43;3.57;;;;;;;4.74;54.15;97066.94;5000142;28;20234;-94
2022/03/02 11:34:58;;;;;;;8.30;5.60;;;;;;;4.90;54.42;97070.84;5007263;28;20291;-95
2022/03/02 11:38:23;;;;;;;6.63;4.23;;;;;;;4.75;54.02;97067.81;5004504;28;20356;-96
2022/03/02 11:41:55;;;;;;;7.13;3.77;;;;;;;4.33;54.14;97051.63;5037614;28;20226;-93
2022/03/02 11:45:26;;;;;;;4.73;3.83;;;;;;;4.48;54.48;97071.81;5009784;28;20195;-93
2022/03/02 11:48:53;;;;;;;4.07;3.57;;;;;;;4.60;52.74;97048.47;5009273;28;20187;-95
2022/03/02 11:52:25;;;;;;;5.60;4.17;;;;;;;4.69;53.97;97070.50;5023075;28;20211;-93
2022/03/02 11:55:55;;;;;;;4.90;3.13;;;;;;;4.97;51.62;97057.91;5009749;28;20207;-91
2022/03/02 12:03:59;;;;;;;5.20;3.00;;;;;;;4.91;51.22;97056.31;5087763;28;20195;-92
2022/03/02 12:07:35;;;;;;;4.80;3.80;;;;;;;4.59;53.12;97031.41;5087844;28;20212;-93
2022/03/02 12:11:10;;;;;;;5.63;3.63;;;;;;;4.23;53.88;96937.38;5093465;28;20188;-93
2022/03/02 12:15:20;;;;;;;7.80;4.50;;;;;;;5.01;52.66;97046.69;5106947;28;20180;-92
2022/03/02 12:18:54;;;;;;;6.73;4.03;;;;;;;4.66;51.97;96968.81;5092324;28;20645;-92
2022/03/02 12:22:21;;;;;;;5.83;4.30;;;;;;;5.06;50.85;97042.28;5063497;28;20208;-92
2022/03/02 12:25:45;;;;;;;7.13;4.47;;;;;;;5.22;51.25;97025.59;5047040;28;20626;-92
2022/03/02 12:33:20;;;;;;;8.33;5.50;;;;;;;5.47;50.95;97017.25;4983602;28;20264;-90
2022/03/02 12:36:50;;;;;;;6.43;4.47;;;;;;;5.58;51.39;97035.81;5019949;28;20204;-92
2022/03/02 12:40:13;;;;;;;7.97;4.87;;;;;;;5.54;50.77;97030.78;5080947;28;20259;-93
2022/03/02 12:43:37;;;;;;;6.20;4.37;;;;;;;5.36;51.58;97003.84;5097563;28;20279;-90
2022/03/02 12:47:03;;;;;;;6.83;3.87;;;;;;;5.31;50.73;97010.00;5066643;28;20209;-90
2022/03/02 12:50:26;;;;;;;5.00;3.87;;;;;;;5.38;51.03;97011.53;5060887;28;20195;-91
2022/03/02 12:58:04;;;;;;;5.53;3.87;;;;;;;4.72;52.07;97009.72;5066902;28;20197;-91
2022/03/02 13:01:35;;;;;;;6.53;4.70;;;;;;;4.59;53.92;96997.22;5079759;28;20192;-90
2022/03/02 13:05:02;;;;;;;5.20;4.47;;;;;;;4.55;54.42;97011.84;5078028;28;20193;-92
2022/03/02 13:08:37;;;;;;;6.57;5.07;;;;;;;4.61;54.85;97004.00;5061971;28;20680;-92
2022/03/02 13:12:05;;;;;;;6.80;4.47;;;;;;;4.48;55.02;96987.22;5039450;28;20816;-94
2022/03/02 13:15:40;;;;;;;6.27;4.37;;;;;;;4.78;54.93;97011.31;5020248;28;20275;-93
2022/03/02 13:23:13;;;;;;;6.83;5.10;;;;;;;4.41;55.87;96941.25;5046399;28;20310;-91
2022/03/02 13:26:57;;;;;;;3.67;3.27;;;;;;;4.63;56.35;96997.13;5055981;28;20221;-92
2022/03/02 13:30:43;;;;;;;4.70;3.90;;;;;;;4.58;56.99;96985.28;5036744;28;20253;-92
2022/03/02 13:34:36;;;;;;;4.10;3.63;;;;;;;4.52;57.22;97000.78;5010947;28;20307;-92
2022/03/02 13:38:18;;;;;;;4.13;3.57;;;;;;;4.43;55.80;96983.91;5030146;28;20210;-93
2022/03/02 13:41:43;;;;;;;8.27;4.97;;;;;;;4.37;56.22;97004.53;4987461;28;20233;-91
2022/03/02 13:44:32;;;;;;;4.70;4.10;;;;;;;4.32;56.81;97008.94;5019886;28;20213;-93
2022/03/02 13:48:01;;;;;;;7.47;4.10;;;;;;;4.28;56.07;97009.88;5022449;28;20207;-92
2022/03/02 13:51:00;;;;;;;4.70;3.93;;;;;;;4.44;55.92;97000.13;5008232;28;20202;-91
2022/03/02 13:54:24;;;;;;;5.90;4.27;;;;;;;4.39;56.30;96994.28;5040368;28;20277;-92
2022/03/02 13:57:52;;;;;;;4.93;4.30;;;;;;;4.31;56.89;96994.44;5026720;28;20317;-92
2022/03/02 14:01:35;;;;;;;4.70;4.00;;;;;;;4.22;57.39;97004.91;5005234;28;20213;-91
2022/03/02 14:05:07;;;;;;;6.43;4.87;;;;;;;4.01;57.00;97000.22;4961831;28;20210;-90
2022/03/02 14:08:28;;;;;;;5.00;4.10;;;;;;;3.96;57.23;97009.69;4984325;28;20199;-93
2022/03/02 14:11:47;;;;;;;3.67;3.30;;;;;;;3.74;57.74;96990.53;4983703;28;20258;-92
2022/03/02 14:15:10;;;;;;;5.70;4.43;;;;;;;3.85;58.28;97001.41;5016126;28;20218;-91
2022/03/02 14:18:33;;;;;;;7.60;4.70;;;;;;;3.85;57.70;96993.72;5036542;28;20317;-91
2022/03/02 14:22:00;;;;;;;4.93;3.77;;;;;;;3.81;58.46;96992.09;5004273;28;20202;-91
2022/03/02 14:25:42;;;;;;;7.00;5.50;;;;;;;3.98;58.27;96992.59;5017163;28;20618;-91
2022/03/02 14:29:15;;;;;;;6.07;4.30;;;;;;;3.86;58.70;97003.94;5018576;28;20217;-90
2022/03/02 14:32:37;;;;;;;6.40;4.60;;;;;;;3.87;59.12;97007.34;5030521;28;20631;-92
2022/03/02 14:36:05;;;;;;;7.17;5.47;;;;;;;3.81;59.33;96981.88;4981353;28;20198;-91
2022/03/02 14:39:30;;;;;;;6.97;5.00;;;;;;;3.76;60.32;97001.59;4988332;28;20242;-93
2022/03/02 14:47:03;;;;;;;8.50;5.87;;;;;;;3.75;59.93;97002.47;5014513;28;20190;-93
2022/03/02 14:51:19;;;;;;;10.43;6.67;;;;;;;3.65;60.44;96989.00;5042234;28;20253;-92
2022/03/02 14:54:55;;;;;;;7.17;5.43;;;;;;;3.74;59.94;96993.09;5030241;28;20214;-94
2022/03/02 14:58:26;;;;;;;9.50;5.63;;;;;;;3.19;60.41;96932.72;5019040;28;20229;-93
2022/03/02 15:01:15;;;;;;;8.67;5.47;;;;;;;2.93;60.60;96917.00;5036765;28;20193;-94
2022/03/02 15:04:07;;;;;;;7.63;5.63;;;;;;;3.43;60.86;96986.88;5040115;28;20198;-93
2022/03/02 15:06:51;;;;;;;11.17;7.57;;;;;;;3.23;60.43;96929.25;5073179;28;20205;-93
2022/03/02 15:09:35;;;;;;;9.83;6.30;;;;;;;3.48;60.84;96995.31;5057812;28;20204;-93
2022/03/02 15:15:54;;;;;;;8.93;6.20;;;;;;;3.38;61.63;96974.16;5072568;28;20189;-90
2022/03/02 15:18:32;;;;;;;7.33;5.53;;;;;;;2.89;60.92;96888.97;4991720;28;20236;-93
2022/03/02 15:21:24;;;;;;;9.40;6.40;;;;;;;3.36;61.63;96970.78;4992780;28;20280;-93
2022/03/02 15:24:14;;;;;;;10.23;6.70;;;;;;;2.83;62.05;96871.16;5002919;28;20667;-94
2022/03/02 15:27:13;;;;;;;12.17;6.53;;;;;;;3.34;62.71;96958.91;4996921;28;20203;-95
2022/03/02 15:30:20;;;;;;;9.97;6.57;;;;;;;3.35;62.67;96963.13;5059417;28;20229;-95
2022/03/02 15:33:06;;;;;;;10.97;7.03;;;;;;;3.09;63.09;96930.38;5075786;28;20198;-95
2022/03/02 15:35:38;;;;;;;8.40;6.40;;;;;;;3.24;63.04;96942.88;5039210;28;20212;-94